Time;durP1;ratioP1;P1;durP2;ratioP2;P2;SDS_P1;SDS_P2;PMS_P1;PMS_P2;Temp;Humidity;BMP_temperature;BMP_pressure;BME280_temperature;BME280_humidity;BME280_pressure;Samples;Min_cycle;Max_cycle;Signal;HPM_P1;HPM_P2
2023/03/12 00:01:20;;;;;;;7.85;4.40;;;;;;;;;;4988542;28;20045;-77
2023/03/12 00:03:47;;;;;;;9.98;4.65;;;;;;;;;;5016052;28;20048;-77
2023/03/12 00:06:13;;;;;;;8.23;4.20;;;;;;;;;;5029763;28;20091;-77
2023/03/12 00:08:39;;;;;;;10.73;4.75;;;;;;;;;;5016760;28;20478;-77
2023/03/12 00:11:16;;;;;;;7.00;4.30;;;;;;;;;;5033691;28;20049;-77
2023/03/12 00:13:42;;;;;;;6.13;4.30;;;;;;;;;;5030876;28;20041;-76
2023/03/12 00:16:10;;;;;;;10.57;4.85;;;;;;;;;;5020166;28;21569;-76
2023/03/12 00:18:36;;;;;;;15.20;4.60;;;;;;;;;;5011597;28;20052;-77
2023/03/12 00:21:03;;;;;;;10.48;4.95;;;;;;;;;;4997114;28;20049;-77
2023/03/12 00:23:29;;;;;;;9.25;4.63;;;;;;;;;;5014853;28;20045;-77
2023/03/12 00:25:58;;;;;;;5.93;4.05;;;;;;;;;;4993570;28;20099;-77
2023/03/12 00:28:24;;;;;;;6.90;4.38;;;;;;;;;;5019052;28;20041;-77
2023/03/12 00:30:52;;;;;;;10.98;4.13;;;;;;;;;;4994986;28;20068;-77
2023/03/12 00:33:18;;;;;;;8.43;4.10;;;;;;;;;;5013685;28;20061;-77
2023/03/12 00:35:45;;;;;;;7.30;4.00;;;;;;;;;;5014791;28;20054;-77
2023/03/12 00:38:11;;;;;;;12.02;4.68;;;;;;;;;;5014625;28;20095;-77
2023/03/12 00:40:38;;;;;;;13.80;4.45;;;;;;;;;;5012313;28;20045;-77
2023/03/12 00:43:04;;;;;;;10.88;4.70;;;;;;;;;;5012430;28;20143;-77
2023/03/12 00:45:30;;;;;;;10.90;3.90;;;;;;;;;;5010391;28;20165;-77
2023/03/12 00:47:56;;;;;;;6.25;3.95;;;;;;;;;;5012630;28;20037;-77
2023/03/12 00:50:22;;;;;;;6.03;4.50;;;;;;;;;;4998169;28;20041;-77
2023/03/12 00:52:48;;;;;;;8.48;3.78;;;;;;;;;;5000311;28;20041;-77
2023/03/12 00:55:15;;;;;;;6.78;4.40;;;;;;;;;;4998518;28;20045;-77
2023/03/12 00:57:41;;;;;;;8.30;4.40;;;;;;;;;;5012229;28;20493;-77
2023/03/12 01:00:09;;;;;;;7.88;3.80;;;;;;;;;;5011395;28;20033;-77
2023/03/12 01:02:35;;;;;;;9.90;4.13;;;;;;;;;;5001087;28;20241;-77
2023/03/12 01:05:02;;;;;;;12.18;4.47;;;;;;;;;;5012741;28;20517;-76
2023/03/12 01:07:28;;;;;;;6.10;3.90;;;;;;;;;;4996971;28;22030;-77
2023/03/12 01:09:54;;;;;;;10.18;4.07;;;;;;;;;;5011185;28;20175;-77
2023/03/12 01:12:20;;;;;;;8.23;3.30;;;;;;;;;;4994842;28;20049;-77
2023/03/12 01:14:46;;;;;;;7.75;3.10;;;;;;;;;;4993392;28;20404;-77
2023/03/12 01:17:12;;;;;;;9.25;4.25;;;;;;;;;;5014082;28;20060;-77
2023/03/12 01:19:38;;;;;;;12.93;3.75;;;;;;;;;;4994675;28;22010;-76
2023/03/12 01:22:04;;;;;;;9.40;3.60;;;;;;;;;;5010592;28;20056;-77
2023/03/12 01:24:30;;;;;;;15.02;4.78;;;;;;;;;;4996052;28;20409;-77
2023/03/12 01:26:57;;;;;;;7.22;3.80;;;;;;;;;;4992264;28;20037;-77
2023/03/12 01:29:23;;;;;;;6.28;3.80;;;;;;;;;;4993576;28;20073;-77
2023/03/12 01:31:50;;;;;;;5.07;3.47;;;;;;;;;;4998218;28;20261;-77
2023/03/12 01:34:17;;;;;;;5.63;3.65;;;;;;;;;;4994341;28;20045;-74
2023/03/12 01:36:45;;;;;;;9.10;3.60;;;;;;;;;;5008410;28;20041;-77
2023/03/12 01:39:11;;;;;;;9.23;3.90;;;;;;;;;;4983084;28;20045;-77
2023/03/12 01:41:37;;;;;;;6.38;4.20;;;;;;;;;;5016947;28;20119;-75
2023/03/12 01:44:04;;;;;;;13.98;4.47;;;;;;;;;;5000807;28;20046;-76
2023/03/12 01:46:32;;;;;;;9.05;4.20;;;;;;;;;;5018373;28;20103;-76
2023/03/12 01:49:11;;;;;;;5.35;3.58;;;;;;;;;;5036711;28;20045;-75
2023/03/12 01:51:37;;;;;;;6.70;4.50;;;;;;;;;;5036076;28;20105;-76
2023/03/12 01:54:05;;;;;;;8.88;3.90;;;;;;;;;;5023710;28;20063;-76
2023/03/12 01:56:32;;;;;;;8.98;4.22;;;;;;;;;;5033225;28;20049;-75
2023/03/12 01:59:00;;;;;;;8.90;5.40;;;;;;;;;;5012846;28;20073;-75
2023/03/12 02:01:27;;;;;;;7.57;4.60;;;;;;;;;;5020935;28;20505;-76
2023/03/12 02:03:53;;;;;;;16.30;4.80;;;;;;;;;;5014833;28;20068;-76
2023/03/12 02:06:22;;;;;;;12.60;4.90;;;;;;;;;;5001215;28;20041;-76
2023/03/12 02:08:48;;;;;;;11.48;4.70;;;;;;;;;;5003669;28;20093;-76
2023/03/12 02:11:14;;;;;;;10.32;4.43;;;;;;;;;;4999612;28;20584;-76
2023/03/12 02:13:40;;;;;;;14.30;4.80;;;;;;;;;;5015469;28;20053;-76
2023/03/12 02:16:07;;;;;;;9.10;4.75;;;;;;;;;;4983951;28;20040;-76
2023/03/12 02:18:33;;;;;;;6.78;4.63;;;;;;;;;;5022909;28;20049;-76
2023/03/12 02:21:07;;;;;;;8.15;4.53;;;;;;;;;;4998661;28;20120;-76
2023/03/12 02:23:38;;;;;;;7.53;4.78;;;;;;;;;;5017265;28;20148;-76
2023/03/12 02:26:05;;;;;;;8.50;4.88;;;;;;;;;;5017749;28;20047;-76
2023/03/12 02:28:33;;;;;;;10.27;4.38;;;;;;;;;;4985395;28;20482;-76
2023/03/12 02:31:01;;;;;;;8.00;4.80;;;;;;;;;;4998557;28;20044;-76
2023/03/12 02:33:27;;;;;;;9.32;4.55;;;;;;;;;;5014136;28;20052;-76
2023/03/12 02:35:54;;;;;;;7.70;5.18;;;;;;;;;;5011976;28;20996;-76
2023/03/12 02:38:43;;;;;;;12.68;5.03;;;;;;;;;;5016394;28;20041;-75
2023/03/12 02:41:12;;;;;;;9.57;5.13;;;;;;;;;;5017968;28;20144;-75
2023/03/12 02:43:39;;;;;;;8.10;5.03;;;;;;;;;;5014201;28;20674;-76
2023/03/12 02:46:05;;;;;;;11.38;4.50;;;;;;;;;;5015328;28;20048;-76
2023/03/12 02:48:32;;;;;;;6.35;4.22;;;;;;;;;;5020974;28;20388;-76
2023/03/12 02:50:59;;;;;;;8.88;5.50;;;;;;;;;;4992045;28;20099;-76
2023/03/12 02:53:25;;;;;;;7.18;4.97;;;;;;;;;;5017476;28;20073;-76
2023/03/12 02:55:51;;;;;;;13.73;5.28;;;;;;;;;;5017697;28;20524;-76
2023/03/12 02:58:17;;;;;;;9.15;4.90;;;;;;;;;;5008065;28;20045;-76
2023/03/12 03:00:43;;;;;;;12.07;5.07;;;;;;;;;;5007296;28;20040;-76
2023/03/12 03:03:10;;;;;;;18.83;5.03;;;;;;;;;;5023875;28;20117;-75
2023/03/12 03:05:36;;;;;;;10.05;5.22;;;;;;;;;;5013473;28;20401;-75
2023/03/12 03:08:02;;;;;;;8.23;4.80;;;;;;;;;;5014810;28;20037;-76
2023/03/12 03:10:28;;;;;;;9.65;4.75;;;;;;;;;;5005838;28;20163;-76
2023/03/12 03:12:54;;;;;;;12.90;4.80;;;;;;;;;;4986456;28;20045;-76
2023/03/12 03:15:20;;;;;;;8.10;5.15;;;;;;;;;;5011613;28;20057;-75
2023/03/12 03:17:46;;;;;;;9.65;5.25;;;;;;;;;;5009563;28;20579;-75
2023/03/12 03:20:13;;;;;;;7.30;4.80;;;;;;;;;;5000167;28;20041;-75
2023/03/12 03:22:39;;;;;;;11.93;5.05;;;;;;;;;;5011918;28;20119;-76
2023/03/12 03:25:06;;;;;;;6.30;4.95;;;;;;;;;;5007517;28;20462;-76
2023/03/12 03:27:32;;;;;;;11.60;4.55;;;;;;;;;;5008568;28;22878;-75
2023/03/12 03:29:58;;;;;;;5.05;4.07;;;;;;;;;;5011579;28;21298;-76
2023/03/12 03:32:24;;;;;;;9.38;4.78;;;;;;;;;;4995712;28;20048;-75
2023/03/12 03:34:51;;;;;;;10.82;4.63;;;;;;;;;;5015858;28;20052;-75
2023/03/12 03:37:17;;;;;;;9.35;4.55;;;;;;;;;;5027313;28;20132;-75
2023/03/12 03:39:43;;;;;;;15.82;4.88;;;;;;;;;;5029968;28;20392;-75
2023/03/12 03:42:09;;;;;;;11.90;4.50;;;;;;;;;;5008304;28;20096;-74
2023/03/12 03:44:35;;;;;;;12.57;4.95;;;;;;;;;;5000177;28;20045;-75
2023/03/12 03:47:01;;;;;;;9.07;4.53;;;;;;;;;;5004276;28;21219;-75
2023/03/12 03:49:27;;;;;;;11.68;4.47;;;;;;;;;;4989373;28;20058;-76
2023/03/12 03:51:53;;;;;;;8.40;4.45;;;;;;;;;;4989701;28;20157;-75
2023/03/12 03:54:19;;;;;;;6.38;4.68;;;;;;;;;;4988183;28;20049;-75
2023/03/12 03:56:46;;;;;;;8.45;4.82;;;;;;;;;;5005214;28;20085;-76
2023/03/12 03:59:12;;;;;;;11.35;4.70;;;;;;;;;;5006527;28;20045;-75
2023/03/12 04:01:38;;;;;;;9.95;4.97;;;;;;;;;;4993689;28;20048;-75
2023/03/12 04:04:05;;;;;;;16.08;5.43;;;;;;;;;;4993945;28;20048;-75
2023/03/12 04:06:31;;;;;;;11.25;5.15;;;;;;;;;;5009901;28;20132;-76
2023/03/12 04:08:58;;;;;;;11.15;5.18;;;;;;;;;;4989926;28;20041;-75
2023/03/12 04:11:25;;;;;;;7.47;4.78;;;;;;;;;;4986869;28;20126;-76
2023/03/12 04:13:51;;;;;;;12.38;5.85;;;;;;;;;;5007114;28;20049;-76
2023/03/12 04:16:17;;;;;;;16.48;5.97;;;;;;;;;;5000761;28;20045;-76
2023/03/12 04:18:44;;;;;;;10.38;6.05;;;;;;;;;;4997426;28;20118;-75
2023/03/12 04:21:11;;;;;;;13.95;5.45;;;;;;;;;;4993935;28;20053;-75
2023/03/12 04:23:37;;;;;;;9.90;5.38;;;;;;;;;;4989570;28;20054;-75
2023/03/12 04:26:04;;;;;;;8.00;5.10;;;;;;;;;;5004708;28;20140;-75
2023/03/12 04:28:30;;;;;;;11.45;5.30;;;;;;;;;;5006564;28;20052;-75
2023/03/12 04:31:00;;;;;;;7.40;4.95;;;;;;;;;;5008560;28;20036;-76
2023/03/12 04:33:27;;;;;;;10.27;4.70;;;;;;;;;;4989458;28;20171;-75
2023/03/12 04:35:53;;;;;;;10.38;4.65;;;;;;;;;;5007408;28;20076;-76
2023/03/12 04:38:20;;;;;;;9.68;4.28;;;;;;;;;;5008746;28;20049;-75
2023/03/12 04:40:46;;;;;;;8.80;4.47;;;;;;;;;;5006889;28;20045;-75
2023/03/12 04:43:13;;;;;;;11.25;4.70;;;;;;;;;;4991894;28;22045;-76
2023/03/12 04:45:39;;;;;;;7.85;4.50;;;;;;;;;;4991715;28;20083;-76
2023/03/12 04:48:05;;;;;;;6.38;4.45;;;;;;;;;;5008929;28;20048;-75
2023/03/12 04:50:31;;;;;;;9.13;4.30;;;;;;;;;;5007338;28;20045;-76
2023/03/12 04:52:57;;;;;;;9.73;4.80;;;;;;;;;;4992505;28;20156;-75
2023/03/12 04:55:23;;;;;;;11.50;4.72;;;;;;;;;;5010881;28;20140;-75
2023/03/12 04:57:50;;;;;;;9.30;4.70;;;;;;;;;;4991473;28;20044;-75
2023/03/12 05:00:16;;;;;;;10.70;4.90;;;;;;;;;;5009590;28;20049;-75
2023/03/12 05:02:42;;;;;;;7.00;4.80;;;;;;;;;;5014090;28;20048;-75
2023/03/12 05:05:10;;;;;;;11.68;5.03;;;;;;;;;;5003297;28;20045;-75
2023/03/12 05:07:36;;;;;;;8.68;4.72;;;;;;;;;;5017386;28;20041;-75
2023/03/12 05:10:03;;;;;;;6.90;4.80;;;;;;;;;;5000510;28;20123;-75
2023/03/12 05:12:29;;;;;;;7.50;4.97;;;;;;;;;;4998418;28;20052;-75
2023/03/12 05:14:55;;;;;;;8.02;4.60;;;;;;;;;;5013928;28;20051;-75
2023/03/12 05:17:21;;;;;;;9.65;4.95;;;;;;;;;;5016495;28;20076;-76
2023/03/12 05:19:47;;;;;;;11.57;4.80;;;;;;;;;;4998821;28;20047;-75
2023/03/12 05:22:13;;;;;;;12.30;4.75;;;;;;;;;;4999564;28;20060;-76
2023/03/12 05:24:39;;;;;;;8.57;4.95;;;;;;;;;;5006304;28;20037;-76
2023/03/12 05:27:07;;;;;;;9.48;5.07;;;;;;;;;;5008855;28;20053;-76
2023/03/12 05:29:34;;;;;;;8.85;4.50;;;;;;;;;;5014061;28;20077;-76
2023/03/12 05:32:03;;;;;;;8.52;4.35;;;;;;;;;;5028729;28;20717;-81
2023/03/12 05:34:30;;;;;;;10.02;5.10;;;;;;;;;;5032844;28;20077;-81
2023/03/12 05:36:56;;;;;;;6.45;4.50;;;;;;;;;;5037458;28;20124;-81
2023/03/12 05:39:23;;;;;;;7.00;4.63;;;;;;;;;;5025848;28;20044;-82
2023/03/12 05:41:49;;;;;;;10.82;5.22;;;;;;;;;;5035484;28;20048;-81
2023/03/12 05:44:16;;;;;;;9.32;4.90;;;;;;;;;;5014585;28;20091;-81
2023/03/12 05:46:43;;;;;;;10.38;5.30;;;;;;;;;;5020828;28;20037;-80
2023/03/12 05:49:09;;;;;;;9.02;5.07;;;;;;;;;;5019895;28;20041;-81
2023/03/12 05:51:35;;;;;;;9.35;5.10;;;;;;;;;;5011447;28;21814;-81
2023/03/12 05:54:01;;;;;;;10.20;4.82;;;;;;;;;;5011970;28;20048;-80
2023/03/12 05:56:28;;;;;;;8.35;5.00;;;;;;;;;;5013024;28;20045;-81
2023/03/12 05:58:54;;;;;;;9.23;5.20;;;;;;;;;;5017674;28;20068;-81
2023/03/12 06:01:22;;;;;;;13.18;5.80;;;;;;;;;;5029296;28;20045;-80
2023/03/12 06:03:48;;;;;;;7.55;5.38;;;;;;;;;;5028008;28;20065;-81
2023/03/12 06:06:14;;;;;;;12.65;4.95;;;;;;;;;;5014668;28;20053;-81
2023/03/12 06:08:41;;;;;;;8.70;5.32;;;;;;;;;;5035910;28;20129;-81
2023/03/12 06:11:07;;;;;;;9.63;5.38;;;;;;;;;;5012821;28;20103;-80
2023/03/12 06:13:33;;;;;;;7.97;5.45;;;;;;;;;;5016290;28;20119;-80
2023/03/12 06:16:23;;;;;;;11.57;5.82;;;;;;;;;;5015460;28;20052;-81
2023/03/12 06:18:52;;;;;;;7.68;5.32;;;;;;;;;;5030396;28;20116;-80
2023/03/12 06:21:20;;;;;;;13.95;5.70;;;;;;;;;;5015204;28;20040;-80
2023/03/12 06:23:46;;;;;;;12.48;5.38;;;;;;;;;;5031519;28;20402;-81
2023/03/12 06:26:13;;;;;;;7.90;5.38;;;;;;;;;;5015075;28;20095;-80
2023/03/12 06:28:39;;;;;;;9.93;5.43;;;;;;;;;;5029118;28;20086;-80
2023/03/12 06:31:05;;;;;;;12.57;5.93;;;;;;;;;;5033156;28;20041;-81
2023/03/12 06:33:31;;;;;;;9.52;6.57;;;;;;;;;;5016123;28;20102;-81
2023/03/12 06:35:58;;;;;;;8.48;5.90;;;;;;;;;;5016466;28;21069;-81
2023/03/12 06:38:25;;;;;;;10.02;7.13;;;;;;;;;;5034810;28;20050;-81
2023/03/12 06:40:58;;;;;;;8.90;6.10;;;;;;;;;;4998140;28;20049;-81
2023/03/12 06:43:25;;;;;;;9.88;6.07;;;;;;;;;;5025899;28;20061;-82
2023/03/12 06:45:51;;;;;;;10.05;6.07;;;;;;;;;;5024915;28;20087;-81
2023/03/12 06:48:17;;;;;;;10.38;6.07;;;;;;;;;;5025309;28;20078;-80
2023/03/12 06:50:43;;;;;;;13.23;7.25;;;;;;;;;;5013472;28;20041;-81
2023/03/12 06:53:09;;;;;;;16.67;7.72;;;;;;;;;;5011485;28;20689;-80
2023/03/12 06:55:36;;;;;;;12.48;6.63;;;;;;;;;;4986583;28;20041;-80
2023/03/12 06:58:03;;;;;;;11.70;6.93;;;;;;;;;;5018075;28;20053;-80
2023/03/12 07:00:29;;;;;;;14.30;7.32;;;;;;;;;;5020440;28;20060;-80
2023/03/12 07:02:56;;;;;;;16.40;7.45;;;;;;;;;;4983414;28;20041;-81
2023/03/12 07:05:22;;;;;;;11.65;7.15;;;;;;;;;;5017343;28;20049;-81
2023/03/12 07:07:48;;;;;;;12.57;7.55;;;;;;;;;;5018779;28;20049;-81
2023/03/12 07:10:14;;;;;;;11.05;6.95;;;;;;;;;;5010827;28;20041;-78
2023/03/12 07:12:40;;;;;;;14.57;7.47;;;;;;;;;;5012977;28;20109;-80
2023/03/12 07:15:07;;;;;;;15.18;7.45;;;;;;;;;;5037573;28;20140;-83
2023/03/12 07:17:33;;;;;;;13.35;7.15;;;;;;;;;;5009448;28;20099;-81
2023/03/12 07:19:59;;;;;;;12.05;7.40;;;;;;;;;;4991326;28;20046;-82
2023/03/12 07:22:25;;;;;;;11.98;7.50;;;;;;;;;;5004310;28;20132;-82
2023/03/12 07:24:51;;;;;;;10.70;7.25;;;;;;;;;;5023095;28;20037;-82
2023/03/12 07:27:17;;;;;;;14.95;7.50;;;;;;;;;;5017623;28;20041;-81
2023/03/12 07:29:44;;;;;;;15.98;6.90;;;;;;;;;;5001892;28;20052;-81
2023/03/12 07:32:11;;;;;;;13.68;7.20;;;;;;;;;;5011004;28;20036;-81
2023/03/12 07:34:37;;;;;;;9.48;7.38;;;;;;;;;;5001468;28;20045;-81
2023/03/12 07:37:03;;;;;;;17.25;6.88;;;;;;;;;;5015447;28;20049;-82
2023/03/12 07:39:29;;;;;;;13.85;6.70;;;;;;;;;;5014777;28;20496;-82
2023/03/12 07:41:56;;;;;;;11.00;6.68;;;;;;;;;;4995287;28;20061;-82
2023/03/12 07:44:22;;;;;;;13.02;6.70;;;;;;;;;;4993161;28;20424;-77
2023/03/12 07:46:48;;;;;;;16.85;6.55;;;;;;;;;;4994816;28;20037;-77
2023/03/12 07:49:14;;;;;;;9.38;6.65;;;;;;;;;;4995706;28;20044;-77
2023/03/12 07:51:40;;;;;;;12.07;7.85;;;;;;;;;;4977822;28;20045;-82
2023/03/12 07:54:07;;;;;;;12.57;7.55;;;;;;;;;;4995364;28;20045;-81
2023/03/12 07:56:33;;;;;;;13.02;6.70;;;;;;;;;;5010448;28;20107;-82
2023/03/12 07:58:59;;;;;;;12.55;7.28;;;;;;;;;;5014553;28;20041;-82
2023/03/12 08:01:31;;;;;;;13.05;7.50;;;;;;;;;;4994621;28;20308;-83
2023/03/12 08:03:58;;;;;;;15.35;7.47;;;;;;;;;;4994659;28;20048;-83
2023/03/12 08:06:24;;;;;;;15.43;7.20;;;;;;;;;;5014431;28;20041;-82
2023/03/12 08:08:50;;;;;;;10.93;7.75;;;;;;;;;;5016358;28;20140;-82
2023/03/12 08:11:17;;;;;;;13.68;7.75;;;;;;;;;;4999289;28;22098;-83
2023/03/12 08:13:43;;;;;;;10.60;7.47;;;;;;;;;;4999633;28;20045;-83
2023/03/12 08:16:09;;;;;;;11.43;8.43;;;;;;;;;;5008094;28;20060;-82
2023/03/12 08:18:35;;;;;;;9.55;7.32;;;;;;;;;;5000042;28;20033;-83
2023/03/12 08:21:01;;;;;;;15.77;8.40;;;;;;;;;;5005074;28;20077;-81
2023/03/12 08:23:27;;;;;;;10.93;7.47;;;;;;;;;;5000570;28;20076;-82
2023/03/12 08:25:54;;;;;;;18.42;8.48;;;;;;;;;;5016318;28;20052;-81
2023/03/12 08:28:20;;;;;;;12.45;8.15;;;;;;;;;;5014353;28;20049;-81
2023/03/12 08:30:47;;;;;;;12.15;8.07;;;;;;;;;;5011919;28;20131;-82
2023/03/12 08:33:13;;;;;;;14.35;8.75;;;;;;;;;;5003755;28;20045;-81
2023/03/12 08:35:40;;;;;;;13.70;9.05;;;;;;;;;;5006246;28;20114;-81
2023/03/12 08:38:06;;;;;;;10.60;9.30;;;;;;;;;;5023552;28;20242;-82
2023/03/12 08:40:32;;;;;;;15.55;10.48;;;;;;;;;;5005194;28;20056;-82
2023/03/12 08:42:58;;;;;;;13.48;10.70;;;;;;;;;;5020387;28;20118;-83
2023/03/12 08:45:24;;;;;;;17.08;10.77;;;;;;;;;;5017506;28;20629;-83
2023/03/12 08:47:50;;;;;;;14.55;11.27;;;;;;;;;;5029036;28;21256;-82
2023/03/12 08:50:17;;;;;;;20.98;12.35;;;;;;;;;;5041233;28;20057;-81
2023/03/12 08:52:43;;;;;;;15.93;13.00;;;;;;;;;;5006743;28;20096;-81
2023/03/12 08:55:10;;;;;;;23.67;13.43;;;;;;;;;;5014210;28;20059;-83
2023/03/12 08:57:37;;;;;;;18.13;13.25;;;;;;;;;;5011777;28;20511;-83
2023/03/12 09:00:10;;;;;;;20.25;14.20;;;;;;;;;;5012665;28;20079;-83
2023/03/12 09:02:36;;;;;;;19.83;15.25;;;;;;;;;;5011468;28;20081;-82
2023/03/12 09:05:03;;;;;;;23.55;16.48;;;;;;;;;;5001451;28;20740;-83
2023/03/12 09:07:30;;;;;;;25.60;16.95;;;;;;;;;;5013463;28;20037;-83
2023/03/12 09:09:56;;;;;;;25.75;17.30;;;;;;;;;;5011014;28;20041;-83
2023/03/12 09:12:23;;;;;;;22.08;16.75;;;;;;;;;;5007428;28;20148;-82
2023/03/12 09:14:50;;;;;;;27.83;18.55;;;;;;;;;;5014375;28;20049;-82
2023/03/12 09:17:16;;;;;;;23.73;18.67;;;;;;;;;;4998768;28;20652;-82
2023/03/12 09:19:42;;;;;;;22.75;16.55;;;;;;;;;;4994590;28;20628;-84
2023/03/12 09:22:08;;;;;;;26.40;18.23;;;;;;;;;;4981711;28;20049;-77
2023/03/12 09:24:34;;;;;;;23.85;18.02;;;;;;;;;;5013709;28;20612;-77
2023/03/12 09:27:01;;;;;;;26.70;20.33;;;;;;;;;;5014047;28;20052;-77
2023/03/12 09:29:27;;;;;;;25.83;19.83;;;;;;;;;;4994584;28;20042;-77
2023/03/12 09:31:53;;;;;;;26.30;20.17;;;;;;;;;;5007905;28;20114;-78
2023/03/12 09:34:19;;;;;;;27.95;20.17;;;;;;;;;;5002082;28;20131;-77
2023/03/12 09:36:45;;;;;;;28.95;19.58;;;;;;;;;;4987353;28;20053;-77
2023/03/12 09:39:11;;;;;;;32.10;19.83;;;;;;;;;;4992934;28;20049;-77
2023/03/12 09:41:38;;;;;;;27.70;20.27;;;;;;;;;;5014464;28;20063;-78
2023/03/12 09:44:18;;;;;;;27.38;19.55;;;;;;;;;;5009968;28;20137;-78
2023/03/12 09:46:48;;;;;;;24.05;17.95;;;;;;;;;;5009058;28;20661;-78
2023/03/12 09:49:18;;;;;;;25.63;19.88;;;;;;;;;;4995641;28;20140;-78
2023/03/12 09:51:48;;;;;;;29.17;21.60;;;;;;;;;;5011912;28;20046;-78
2023/03/12 09:54:40;;;;;;;29.33;22.20;;;;;;;;;;5010083;28;20266;-78
2023/03/12 09:57:10;;;;;;;30.85;24.17;;;;;;;;;;5015681;28;20054;-77
2023/03/12 09:59:36;;;;;;;33.20;23.25;;;;;;;;;;4998016;28;20041;-77
2023/03/12 10:02:05;;;;;;;37.85;24.23;;;;;;;;;;4997417;28;20677;-77
2023/03/12 10:04:40;;;;;;;34.92;26.55;;;;;;;;;;5003280;28;20049;-77
2023/03/12 10:07:10;;;;;;;40.30;29.70;;;;;;;;;;4997940;28;20095;-77
2023/03/12 10:09:55;;;;;;;44.90;29.30;;;;;;;;;;5001032;28;20605;-77
2023/03/12 10:12:42;;;;;;;37.67;30.05;;;;;;;;;;5019364;28;20060;-78
2023/03/12 10:15:14;;;;;;;46.50;33.85;;;;;;;;;;5001455;28;20497;-77
2023/03/12 10:17:43;;;;;;;40.85;25.45;;;;;;;;;;5018072;28;20403;-77
2023/03/12 10:20:12;;;;;;;39.10;27.33;;;;;;;;;;5015449;28;20111;-77
2023/03/12 10:22:59;;;;;;;32.53;27.73;;;;;;;;;;4999451;28;20048;-77
2023/03/12 10:25:31;;;;;;;37.80;27.02;;;;;;;;;;4990889;28;20053;-77
2023/03/12 10:28:04;;;;;;;39.60;28.65;;;;;;;;;;5009439;28;20049;-77
2023/03/12 10:30:31;;;;;;;36.83;27.33;;;;;;;;;;5018462;28;20041;-76
2023/03/12 10:33:00;;;;;;;41.65;28.58;;;;;;;;;;5006419;28;20099;-78
2023/03/12 10:35:31;;;;;;;35.70;27.33;;;;;;;;;;5016872;28;20050;-77
2023/03/12 10:38:01;;;;;;;45.92;32.70;;;;;;;;;;5017556;28;20045;-76
2023/03/12 10:40:33;;;;;;;39.53;34.45;;;;;;;;;;4998877;28;20179;-77
2023/03/12 10:42:59;;;;;;;45.42;34.45;;;;;;;;;;4998806;28;20049;-76
2023/03/12 10:45:44;;;;;;;47.28;35.75;;;;;;;;;;5017660;28;20493;-76
2023/03/12 10:48:11;;;;;;;56.28;37.40;;;;;;;;;;5016114;28;20604;-76
2023/03/12 10:50:38;;;;;;;49.97;40.25;;;;;;;;;;5016682;28;20094;-75
2023/03/12 10:53:22;;;;;;;50.40;39.03;;;;;;;;;;5010336;28;20060;-76
2023/03/12 10:56:03;;;;;;;49.28;34.13;;;;;;;;;;5009909;28;20152;-76
2023/03/12 10:58:35;;;;;;;47.00;36.10;;;;;;;;;;5014057;28;20139;-75
2023/03/12 11:01:02;;;;;;;44.47;32.70;;;;;;;;;;5016693;28;20049;-75
2023/03/12 11:03:29;;;;;;;52.75;37.47;;;;;;;;;;5000745;28;20843;-76
2023/03/12 11:05:57;;;;;;;52.63;40.40;;;;;;;;;;5011845;28;20084;-76
2023/03/12 11:08:27;;;;;;;51.63;39.03;;;;;;;;;;5012861;28;20040;-76
2023/03/12 11:10:54;;;;;;;48.65;36.35;;;;;;;;;;5012583;28;20438;-77
2023/03/12 11:13:28;;;;;;;41.50;30.40;;;;;;;;;;4998606;28;21961;-75
2023/03/12 11:15:56;;;;;;;37.83;32.78;;;;;;;;;;5012567;28;20046;-76
2023/03/12 11:18:28;;;;;;;49.10;36.42;;;;;;;;;;5001344;28;20135;-76
2023/03/12 11:21:14;;;;;;;47.30;38.35;;;;;;;;;;4991677;28;20071;-78
2023/03/12 11:23:42;;;;;;;47.13;37.38;;;;;;;;;;5010141;28;20099;-78
2023/03/12 11:26:15;;;;;;;33.92;24.30;;;;;;;;;;5014102;28;22201;-79
2023/03/12 11:28:43;;;;;;;47.10;35.33;;;;;;;;;;5012663;28;20136;-78
2023/03/12 11:31:30;;;;;;;44.08;35.88;;;;;;;;;;4995093;28;20057;-78
2023/03/12 11:33:59;;;;;;;46.85;36.67;;;;;;;;;;4994664;28;20079;-78
2023/03/12 11:36:44;;;;;;;47.05;33.00;;;;;;;;;;4993929;28;20041;-79
2023/03/12 11:39:20;;;;;;;44.55;29.95;;;;;;;;;;5011296;28;20055;-76
2023/03/12 11:41:53;;;;;;;42.13;27.20;;;;;;;;;;4995128;28;20099;-77
2023/03/12 11:44:21;;;;;;;37.65;27.33;;;;;;;;;;5008325;28;20164;-76
2023/03/12 11:46:59;;;;;;;43.40;30.45;;;;;;;;;;5013403;28;20092;-77
2023/03/12 11:49:25;;;;;;;41.28;29.55;;;;;;;;;;5009838;28;20456;-77
2023/03/12 11:52:02;;;;;;;45.03;30.48;;;;;;;;;;5013789;28;20045;-77
2023/03/12 11:54:47;;;;;;;46.67;34.00;;;;;;;;;;4996987;28;20052;-77
2023/03/12 11:57:32;;;;;;;41.35;27.02;;;;;;;;;;5001549;28;20619;-77
2023/03/12 12:00:19;;;;;;;45.25;32.72;;;;;;;;;;5009982;28;20184;-78
2023/03/12 12:03:04;;;;;;;45.33;30.85;;;;;;;;;;5014677;28;20088;-77
2023/03/12 12:05:44;;;;;;;44.65;31.00;;;;;;;;;;5011863;28;20041;-77
2023/03/12 12:08:26;;;;;;;43.53;29.88;;;;;;;;;;5009485;28;20666;-78
2023/03/12 12:10:52;;;;;;;53.33;35.45;;;;;;;;;;5007388;28;20047;-77
2023/03/12 12:13:27;;;;;;;49.63;34.63;;;;;;;;;;5017506;28;20037;-78
2023/03/12 12:16:12;;;;;;;45.72;30.48;;;;;;;;;;5009187;28;20045;-77
2023/03/12 12:18:50;;;;;;;42.83;30.17;;;;;;;;;;4996204;28;20081;-77
2023/03/12 12:21:16;;;;;;;49.47;33.67;;;;;;;;;;5004104;28;20099;-77
2023/03/12 12:23:58;;;;;;;51.70;32.53;;;;;;;;;;4986461;28;20060;-77
2023/03/12 12:26:27;;;;;;;48.55;30.45;;;;;;;;;;5008268;28;20104;-78
2023/03/12 12:29:02;;;;;;;44.67;32.08;;;;;;;;;;4991410;28;20738;-76
2023/03/12 12:31:30;;;;;;;56.30;35.85;;;;;;;;;;4995887;28;20485;-77
2023/03/12 12:34:02;;;;;;;53.85;35.88;;;;;;;;;;5009839;28;20477;-78
2023/03/12 12:36:33;;;;;;;50.45;32.80;;;;;;;;;;5004423;28;20041;-77
2023/03/12 12:39:03;;;;;;;56.85;36.88;;;;;;;;;;5008437;28;20049;-77
2023/03/12 12:41:32;;;;;;;57.78;33.65;;;;;;;;;;5002356;28;20061;-77
2023/03/12 12:44:00;;;;;;;52.42;35.38;;;;;;;;;;5009152;28;20061;-77
2023/03/12 12:46:29;;;;;;;56.17;39.33;;;;;;;;;;5006871;28;20074;-77
2023/03/12 12:49:01;;;;;;;56.38;36.13;;;;;;;;;;5011739;28;20643;-77
2023/03/12 12:51:36;;;;;;;52.83;31.73;;;;;;;;;;5007179;28;20780;-77
2023/03/12 12:54:15;;;;;;;50.95;29.73;;;;;;;;;;4991610;28;20183;-77
2023/03/12 12:56:44;;;;;;;61.92;37.38;;;;;;;;;;4992328;28;20052;-78
2023/03/12 12:59:24;;;;;;;58.35;37.35;;;;;;;;;;5012369;28;20112;-77
2023/03/12 13:01:52;;;;;;;55.15;29.00;;;;;;;;;;5014596;28;20037;-78
2023/03/12 13:04:30;;;;;;;59.20;36.03;;;;;;;;;;4997268;28;20052;-77
2023/03/12 13:07:11;;;;;;;55.50;33.55;;;;;;;;;;5013498;28;20037;-77
2023/03/12 13:09:45;;;;;;;54.83;31.48;;;;;;;;;;5004597;28;20396;-77
2023/03/12 13:12:16;;;;;;;47.13;28.13;;;;;;;;;;5017372;28;20047;-77
2023/03/12 13:14:49;;;;;;;54.95;30.20;;;;;;;;;;4991540;28;20480;-78
2023/03/12 13:17:23;;;;;;;61.50;33.83;;;;;;;;;;5006308;28;20501;-78
2023/03/12 13:19:50;;;;;;;60.65;33.15;;;;;;;;;;5013019;28;20374;-77
2023/03/12 13:22:16;;;;;;;50.03;28.25;;;;;;;;;;5011052;28;20126;-78
2023/03/12 13:24:42;;;;;;;65.28;35.00;;;;;;;;;;5012335;28;20132;-78
2023/03/12 13:27:22;;;;;;;54.70;28.98;;;;;;;;;;5013766;28;20036;-77
2023/03/12 13:29:55;;;;;;;59.33;34.15;;;;;;;;;;4995045;28;20049;-77
2023/03/12 13:32:36;;;;;;;61.78;33.83;;;;;;;;;;4987754;28;20041;-77
2023/03/12 13:35:18;;;;;;;58.95;34.47;;;;;;;;;;4997362;28;21975;-77
2023/03/12 13:37:53;;;;;;;66.25;36.70;;;;;;;;;;5011464;28;20060;-76
2023/03/12 13:40:28;;;;;;;66.20;32.88;;;;;;;;;;5013874;28;20495;-76
2023/03/12 13:43:04;;;;;;;62.30;30.02;;;;;;;;;;5010612;28;20053;-76
2023/03/12 13:45:30;;;;;;;43.70;24.90;;;;;;;;;;4999580;28;21070;-76
2023/03/12 13:47:58;;;;;;;73.78;36.38;;;;;;;;;;5007778;28;20041;-77
2023/03/12 13:50:25;;;;;;;63.55;31.60;;;;;;;;;;5020489;28;20451;-77
2023/03/12 13:53:05;;;;;;;67.40;32.25;;;;;;;;;;5014105;28;20049;-78
2023/03/12 13:55:36;;;;;;;65.72;28.40;;;;;;;;;;4992238;28;20520;-78
2023/03/12 13:58:12;;;;;;;70.18;30.55;;;;;;;;;;4996992;28;20053;-78
2023/03/12 14:00:40;;;;;;;73.72;32.63;;;;;;;;;;5010585;28;20037;-77
2023/03/12 14:03:14;;;;;;;66.57;29.55;;;;;;;;;;4996665;28;20049;-77
2023/03/12 14:05:40;;;;;;;;;;;;;;;;;;5013125;28;20037;-78
2023/03/12 14:08:43;;;;;;;;;;;;;;;;;;;;;
2023/03/12 14:11:49;;;;;;;72.10;32.15;;;;;;;;;;5016915;28;20091;-78
2023/03/12 14:14:29;;;;;;;;;;;;;;;;;;;;;
2023/03/12 14:17:26;;;;;;;71.55;32.17;;;;;;;;;;5012493;28;20060;-78
2023/03/12 14:20:10;;;;;;;77.60;31.98;;;;;;;;;;4999957;28;20163;-79
2023/03/12 14:22:40;;;;;;;74.00;32.13;;;;;;;;;;4993000;28;20072;-79
2023/03/12 14:25:36;;;;;;;81.63;32.90;;;;;;;;;;5000417;28;20037;-79
2023/03/12 14:28:13;;;;;;;72.10;30.42;;;;;;;;;;4989037;28;20045;-79
2023/03/12 14:30:55;;;;;;;70.78;26.98;;;;;;;;;;5015805;28;20095;-79
2023/03/12 14:33:21;;;;;;;78.47;26.70;;;;;;;;;;5012048;28;20061;-78
2023/03/12 14:35:53;;;;;;;82.88;25.80;;;;;;;;;;5015035;28;20131;-78
2023/03/12 14:38:30;;;;;;;64.75;22.10;;;;;;;;;;5004200;28;20044;-78
2023/03/12 14:41:15;;;;;;;64.60;21.38;;;;;;;;;;5013824;28;20056;-78
2023/03/12 14:43:42;;;;;;;58.40;18.88;;;;;;;;;;5010065;28;20318;-79